Wrentham, MA

4:10 AM EST on December 07, 2016 (GMT -0500)
Myrtle Street | | Change Station

Elev 230 ft 42.07 °N, 71.30 °W | Updated 59 seconds ago

Light Rain
Light Rain
36.1 °F
Feels Like 36 °F
N
0.0
Wind Variable Wind from ENE
Gusts 1.0 mph

Today
High -- | Low -- °F
--% Chance of Precip.
Yesterday
High -- | Low -- °F
Precip. -- in
Pressure 29.92 in
Visibility 10.0 miles
Clouds Overcast 4400 ft
Windchill 36 °F
Dew Point 35 °F
Humidity 95%
Rainfall 0.09 in
Snow Depth Not available.
7:00 AM 4:13 PM
Waxing Crescent, 50% visible
METAR KOWD 070853Z AUTO 10003KT 10SM -RA OVC044 03/02 A2992 RMK AO2 SLP131 P0003 60005 T00330017 58008
Pressure 29.92 in
Visibility 10.0 miles
Clouds Overcast 4400 ft
Windchill 36 °F
Dew Point 35 °F
Humidity 95%
Rainfall 0.09 in
Snow Depth Not available.
7:00 AM 4:13 PM
Waxing Crescent, 50% visible
METAR KOWD 070853Z AUTO 10003KT 10SM -RA OVC044 03/02 A2992 RMK AO2 SLP131 P0003 60005 T00330017 58008

10-Day Weather Forecast

Almanac

Astronomy

Dec. 07, 2016 Rise Set
Actual Time
Civil Twilight
Nautical Twilight
Astronomical Twilight
Moon
Length of Visible Light
Length of Day
Tomorrow will be .
, % of the Moon is Illuminated

Today's Extremes

State Highs State Lows

Community

WunderPhotos

Upload Photos

1,956,104 photos uploaded!

WunderBlog® & News

Nearby

Air Quality

  Air Quality AQ Index Pollutant
Not available.

Snow Depth

Station Depth Elevation

Earthquake Activity

City Distance Mag. Time & Date
Minimum magnitude displayed is 2.5.

Coastal Water Temperatures

Place Temperature

Stations

Nearby Weather Stations

Station Location Temp. Windchill Dew Point Humidity Wind Precip. Elev Updated Type
                   

Watches & Warnings

There are currently no watches in effect.